createdAt,value
2023-04-12T00:00:29.098Z,100082.38
2023-04-12T00:03:51.215Z,100071.78
2023-04-12T00:06:54.725Z,100077.13
2023-04-12T00:09:57.485Z,100075.34
2023-04-12T00:12:59.844Z,100090.44
2023-04-12T00:16:02.578Z,100088.66
2023-04-12T00:19:06.712Z,100085.13
2023-04-12T00:22:10.016Z,100076.28
2023-04-12T00:25:12.504Z,100077.19
2023-04-12T00:28:16.240Z,100075.44
2023-04-12T00:31:19.339Z,100077.19
2023-04-12T00:34:21.985Z,100071.00
2023-04-12T00:37:24.457Z,100075.41
2023-04-12T00:40:27.219Z,100078.06
2023-04-12T00:43:31.937Z,100083.34
2023-04-12T00:46:34.809Z,100078.94
2023-04-12T00:49:39.582Z,100091.31
2023-04-12T00:52:42.452Z,100089.53
2023-04-12T00:55:45.904Z,100092.22
2023-04-12T00:58:48.962Z,100089.56
2023-04-12T01:01:52.907Z,100075.41
2023-04-12T01:04:58.969Z,100060.38
2023-04-12T01:08:15.139Z,100055.09
2023-04-12T01:11:24.142Z,100055.13
2023-04-12T01:15:05.193Z,100040.09
2023-04-12T01:18:17.599Z,100039.19
2023-04-12T01:21:42.812Z,100053.31
2023-04-12T01:25:00.210Z,100069.25
2023-04-12T01:28:05.779Z,100062.16
2023-04-12T01:31:13.176Z,100064.78
2023-04-12T01:34:16.328Z,100069.16
2023-04-12T01:37:23.301Z,100069.19
2023-04-12T01:40:28.322Z,100065.63
2023-04-12T01:43:31.040Z,100066.53
2023-04-12T01:46:34.742Z,100067.41
2023-04-12T01:49:47.812Z,100073.56
2023-04-12T01:52:59.726Z,100077.13
2023-04-12T01:56:10.296Z,100081.50
2023-04-12T01:59:16.630Z,100075.34
2023-04-12T02:02:19.684Z,100070.06
2023-04-12T02:05:22.557Z,100059.44
2023-04-12T02:08:28.649Z,100065.66
2023-04-12T02:11:31.101Z,100065.66
2023-04-12T02:14:34.087Z,100066.47
2023-04-12T02:17:37.575Z,100055.88
2023-04-12T02:20:41.107Z,100058.53
2023-04-12T02:23:45.083Z,100057.66
2023-04-12T02:26:50.060Z,100062.03
2023-04-12T02:29:53.084Z,100052.31
2023-04-12T02:32:56.423Z,100054.97
2023-04-12T02:36:03.044Z,100049.69
2023-04-12T02:39:07.982Z,100042.59
2023-04-12T02:42:11.260Z,100054.03
2023-04-12T02:45:15.350Z,100049.59
2023-04-12T02:48:18.848Z,100048.78
2023-04-12T02:51:25.139Z,100056.66
2023-04-12T02:54:27.579Z,100072.59
2023-04-12T02:57:32.120Z,100077.91
2023-04-12T03:00:34.875Z,100070.81
2023-04-12T03:03:39.401Z,100063.66
2023-04-12T03:07:00.592Z,100073.44
2023-04-12T03:10:14.168Z,100071.66
2023-04-12T03:13:22.023Z,100073.44
2023-04-12T03:16:30.126Z,100072.53
2023-04-12T03:19:43.380Z,100072.50
2023-04-12T03:22:47.061Z,100066.31
2023-04-12T03:25:49.500Z,100069.88
2023-04-12T03:29:11.322Z,100074.25
2023-04-12T03:32:16.721Z,100076.00
2023-04-12T03:35:23.060Z,100076.94
2023-04-12T03:38:27.211Z,100070.78
2023-04-12T03:41:31.798Z,100071.63
2023-04-12T03:44:37.765Z,100070.72
2023-04-12T03:47:46.386Z,100075.16
2023-04-12T03:50:54.746Z,100078.72
2023-04-12T03:53:59.431Z,100085.75
2023-04-12T03:57:02.367Z,100076.00
2023-04-12T04:00:33.958Z,100076.00
2023-04-12T04:03:42.607Z,100081.31
2023-04-12T04:06:59.038Z,100075.97
2023-04-12T04:10:03.850Z,100081.28
2023-04-12T04:13:11.326Z,100085.72
2023-04-12T04:16:14.158Z,100068.94
2023-04-12T04:19:17.287Z,100086.56
2023-04-12T04:22:23.098Z,100083.88
2023-04-12T04:25:30.226Z,100077.75
2023-04-12T04:28:38.771Z,100088.31
2023-04-12T04:31:45.378Z,100086.50
2023-04-12T04:34:49.013Z,100089.19
2023-04-12T04:37:55.112Z,100093.56
2023-04-12T04:40:58.912Z,100094.44
2023-04-12T04:44:14.575Z,100083.78
2023-04-12T04:47:25.497Z,100096.34
2023-04-12T04:50:28.402Z,100104.28
2023-04-12T04:53:31.507Z,100089.19
2023-04-12T04:56:35.528Z,100097.13
2023-04-12T04:59:38.304Z,100108.63
2023-04-12T05:02:52.893Z,100111.19
2023-04-12T05:06:03.647Z,100099.69
2023-04-12T05:09:08.365Z,100103.22
2023-04-12T05:12:16.676Z,100106.75
2023-04-12T05:15:24.761Z,100110.28
2023-04-12T05:18:27.818Z,100111.16
2023-04-12T05:21:31.433Z,100112.13
2023-04-12T05:24:33.893Z,100119.94
2023-04-12T05:27:36.934Z,100112.78
2023-04-12T05:30:42.019Z,100123.34
2023-04-12T05:33:46.332Z,100106.59
2023-04-12T05:36:48.800Z,100113.56
2023-04-12T05:39:51.496Z,100115.25
2023-04-12T05:42:54.757Z,100108.22
2023-04-12T05:45:57.957Z,100117.91
2023-04-12T05:49:00.450Z,100111.72
2023-04-12T05:52:05.552Z,100116.94
2023-04-12T05:55:09.566Z,100111.72
2023-04-12T05:58:16.326Z,100120.50
2023-04-12T06:01:20.108Z,100117.97
2023-04-12T06:04:23.414Z,100121.75
2023-04-12T06:07:28.138Z,100122.56
2023-04-12T06:10:31.205Z,100123.47
2023-04-12T06:13:35.576Z,100119.09
2023-04-12T06:16:39.995Z,100112.84
2023-04-12T06:19:44.185Z,100119.03
2023-04-12T06:22:46.868Z,100111.84
2023-04-12T06:25:53.589Z,100102.13
2023-04-12T06:28:57.364Z,100109.13
2023-04-12T06:32:00.139Z,100110.88
2023-04-12T06:35:02.899Z,100111.72
2023-04-12T06:38:05.270Z,100118.81
2023-04-12T06:41:08.156Z,100121.38
2023-04-12T06:44:10.728Z,100116.91
2023-04-12T06:47:13.568Z,100115.16
2023-04-12T06:50:16.282Z,100119.47
2023-04-12T06:53:18.934Z,100120.34
2023-04-12T06:56:21.314Z,100122.19
2023-04-12T06:59:24.079Z,100122.28
2023-04-12T07:02:26.584Z,100123.16
2023-04-12T07:05:29.385Z,100129.31
2023-04-12T07:08:35.978Z,100123.97
2023-04-12T07:11:38.898Z,100137.19
2023-04-12T07:14:42.399Z,100142.44
2023-04-12T07:17:47.012Z,100139.84
2023-04-12T07:20:53.249Z,100140.63
2023-04-12T07:23:56.401Z,100134.38
2023-04-12T07:27:00.233Z,100142.34
2023-04-12T07:30:03.902Z,100140.41
2023-04-12T07:33:18.500Z,100134.09
2023-04-12T07:36:22.462Z,100129.69
2023-04-12T07:39:25.398Z,100130.59
2023-04-12T07:42:30.441Z,100133.44
2023-04-12T07:45:32.853Z,100130.84
2023-04-12T07:48:35.573Z,100122.72
2023-04-12T07:51:38.948Z,100124.50
2023-04-12T07:54:42.813Z,100115.63
2023-04-12T07:57:46.296Z,100125.56
2023-04-12T08:00:49.680Z,100130.91
2023-04-12T08:03:52.604Z,100134.50
2023-04-12T08:06:56.211Z,100135.38
2023-04-12T08:09:58.596Z,100145.06
2023-04-12T08:13:02.487Z,100147.69
2023-04-12T08:16:05.425Z,100149.44
2023-04-12T08:19:09.182Z,100137.66
2023-04-12T08:22:13.508Z,100132.28
2023-04-12T08:25:16.688Z,100142.91
2023-04-12T08:28:19.293Z,100138.44
2023-04-12T08:31:23.326Z,100139.28
2023-04-12T08:34:25.964Z,100138.31
2023-04-12T08:37:28.693Z,100135.66
2023-04-12T08:40:31.243Z,100135.63
2023-04-12T08:43:35.250Z,100140.78
2023-04-12T08:46:38.690Z,100137.31
2023-04-12T08:49:41.427Z,100132.94
2023-04-12T08:52:44.456Z,100126.69
2023-04-12T08:55:47.151Z,100134.56
2023-04-12T08:58:49.972Z,100137.28
2023-04-12T09:01:53.617Z,100140.03
2023-04-12T09:04:56.746Z,100148.16
2023-04-12T09:07:59.827Z,100150.78
2023-04-12T09:11:02.239Z,100150.84
2023-04-12T09:14:06.304Z,100142.75
2023-04-12T09:17:28.450Z,100153.28
2023-04-12T09:20:31.252Z,100129.22
2023-04-12T09:23:33.741Z,100125.81
2023-04-12T09:26:37.175Z,100122.03
2023-04-12T09:29:39.536Z,100107.78
2023-04-12T09:32:42.507Z,100110.09
2023-04-12T09:35:45.141Z,100110.13
2023-04-12T09:39:02.071Z,100109.94
2023-04-12T09:42:21.389Z,100109.81
2023-04-12T09:45:28.706Z,100099.91
2023-04-12T09:48:31.191Z,100096.06
2023-04-12T09:51:36.626Z,100102.16
2023-04-12T09:54:43.870Z,100104.56
2023-04-12T09:57:46.743Z,100091.13
2023-04-12T10:00:49.490Z,100098.25
2023-04-12T10:03:54.368Z,100101.59
2023-04-12T10:07:01.476Z,100103.31
2023-04-12T10:10:04.867Z,100102.19
2023-04-12T10:13:10.435Z,100096.22
2023-04-12T10:16:14.399Z,100097.72
2023-04-12T10:19:17.817Z,100092.13
2023-04-12T10:22:20.682Z,100105.47
2023-04-12T10:25:26.026Z,100099.94
2023-04-12T10:28:28.898Z,100093.81
2023-04-12T10:31:32.604Z,100104.34
2023-04-12T10:34:35.966Z,100101.50
2023-04-12T10:38:08.207Z,100102.88
2023-04-12T10:41:18.446Z,100098.91
2023-04-12T10:44:25.263Z,100097.69
2023-04-12T10:47:49.548Z,100108.16
2023-04-12T10:51:14.180Z,100099.59
2023-04-12T10:54:17.214Z,100105.75
2023-04-12T10:57:42.613Z,100104.38
2023-04-12T11:00:59.096Z,100107.84
2023-04-12T11:04:21.435Z,100095.63
2023-04-12T11:07:43.587Z,100094.31
2023-04-12T11:11:09.301Z,100088.25
2023-04-12T11:14:15.758Z,100085.16
2023-04-12T11:17:22.230Z,100080.75
2023-04-12T11:20:27.925Z,100073.13
2023-04-12T11:23:32.276Z,100076.38
2023-04-12T11:26:35.402Z,100066.03
2023-04-12T11:29:38.018Z,100069.28
2023-04-12T11:32:41.961Z,100068.50
2023-04-12T11:35:44.474Z,100064.47
2023-04-12T11:38:47.602Z,100067.25
2023-04-12T11:41:50.492Z,100056.13
2023-04-12T11:45:00.285Z,100060.81
2023-04-12T11:48:09.347Z,100051.25
2023-04-12T11:51:25.618Z,100043.16
2023-04-12T11:54:31.905Z,100048.44
2023-04-12T11:57:35.550Z,100052.38
2023-04-12T12:00:38.271Z,100039.72
2023-04-12T12:03:41.305Z,100030.97
2023-04-12T12:06:44.368Z,100022.41
2023-04-12T12:09:47.508Z,100016.69
2023-04-12T12:12:50.050Z,100017.25
2023-04-12T12:15:53.376Z,100015.91
2023-04-12T12:18:58.152Z,100020.41
2023-04-12T12:22:06.931Z,100000.81
2023-04-12T12:25:09.376Z,99983.03
2023-04-12T12:28:15.288Z,99990.13
2023-04-12T12:31:21.690Z,99978.34
2023-04-12T12:34:24.487Z,99984.31
2023-04-12T12:37:28.002Z,99985.25
2023-04-12T12:40:32.963Z,99979.00
2023-04-12T12:43:35.553Z,99972.22
2023-04-12T12:49:43.631Z,99968.69
2023-04-12T12:52:47.257Z,99961.78
2023-04-12T12:55:50.283Z,99953.44
2023-04-12T12:58:53.091Z,99954.19
2023-04-12T13:01:55.598Z,99969.38
2023-04-12T13:04:59.100Z,99963.53
2023-04-12T13:08:01.725Z,99957.81
2023-04-12T13:11:04.581Z,99944.66
2023-04-12T13:14:07.086Z,99945.31
2023-04-12T13:17:09.817Z,99947.59
2023-04-12T13:20:12.259Z,99947.31
2023-04-12T13:23:15.164Z,99934.94
2023-04-12T13:26:17.735Z,99943.56
2023-04-12T13:29:21.442Z,99941.06
2023-04-12T13:32:23.921Z,99940.84
2023-04-12T13:35:26.808Z,99926.06
2023-04-12T13:38:29.131Z,99926.94
2023-04-12T13:41:33.177Z,99918.81
2023-04-12T13:44:35.928Z,99915.13
2023-04-12T13:47:39.206Z,99908.66
2023-04-12T13:50:41.669Z,99901.41
2023-04-12T13:53:45.133Z,99918.06
2023-04-12T13:56:48.250Z,99914.16
2023-04-12T13:59:52.233Z,99907.16
2023-04-12T14:02:56.883Z,99914.88
2023-04-12T14:06:01.396Z,99917.78
2023-04-12T14:09:05.920Z,99916.75
2023-04-12T14:12:08.800Z,99919.53
2023-04-12T14:15:11.390Z,99912.09
2023-04-12T14:18:14.207Z,99908.03
2023-04-12T14:21:17.055Z,99910.25
2023-04-12T14:24:21.088Z,99919.38
2023-04-12T14:27:23.532Z,99919.16
2023-04-12T14:30:27.306Z,99906.09
2023-04-12T14:33:30.017Z,99907.97
2023-04-12T14:36:33.645Z,99905.81
2023-04-12T14:39:36.237Z,99914.25
2023-04-12T14:42:40.137Z,99901.84
2023-04-12T14:45:42.516Z,99907.50
2023-04-12T14:48:45.220Z,99902.50
2023-04-12T14:51:47.681Z,99915.47
2023-04-12T14:54:50.433Z,99915.50
2023-04-12T14:57:53.014Z,99918.97
2023-04-12T15:01:00.507Z,99919.44
2023-04-12T15:04:04.401Z,99918.34
2023-04-12T15:07:07.860Z,99917.47
2023-04-12T15:10:11.028Z,99918.34
2023-04-12T15:13:13.815Z,99916.69
2023-04-12T15:16:16.451Z,99922.03
2023-04-12T15:19:22.908Z,99919.97
2023-04-12T15:22:26.714Z,99917.09
2023-04-12T15:25:31.038Z,99915.34
2023-04-12T15:28:33.761Z,99913.44
2023-04-12T15:31:36.608Z,99907.22
2023-04-12T15:34:39.118Z,99907.34
2023-04-12T15:37:42.021Z,99898.34
2023-04-12T15:40:44.951Z,99905.22
2023-04-12T15:43:49.684Z,99900.53
2023-04-12T15:47:07.430Z,99906.25
2023-04-12T15:50:13.724Z,99899.88
2023-04-12T15:53:19.235Z,99896.16
2023-04-12T15:56:25.844Z,99893.91
2023-04-12T15:59:30.033Z,99890.94
2023-04-12T16:02:34.102Z,99888.22
2023-04-12T16:05:37.114Z,99884.69
2023-04-12T16:08:40.184Z,99882.00
2023-04-12T16:11:44.033Z,99878.41
2023-04-12T16:14:47.080Z,99885.66
2023-04-12T16:17:53.654Z,99882.50
2023-04-12T16:20:57.073Z,99884.56
2023-04-12T16:23:59.906Z,99877.63
2023-04-12T16:27:02.981Z,99876.53
2023-04-12T16:30:06.268Z,99886.50
2023-04-12T16:33:10.169Z,99881.41
2023-04-12T16:36:14.021Z,99883.78
2023-04-12T16:39:37.047Z,99891.06
2023-04-12T16:42:55.608Z,99890.72
2023-04-12T16:46:07.613Z,99887.38
2023-04-12T16:49:13.560Z,99889.38
2023-04-12T16:52:17.145Z,99895.78
2023-04-12T16:55:20.453Z,99901.34
2023-04-12T16:58:26.603Z,99897.00
2023-04-12T17:01:30.892Z,99889.16
2023-04-12T17:04:35.509Z,99890.19
2023-04-12T17:07:39.633Z,99889.66
2023-04-12T17:10:45.607Z,99893.63
2023-04-12T17:13:50.666Z,99889.59
2023-04-12T17:16:53.602Z,99885.59
2023-04-12T17:19:57.136Z,99886.28
2023-04-12T17:23:00.822Z,99902.06
2023-04-12T17:26:07.767Z,99907.28
2023-04-12T17:29:11.933Z,99921.81
2023-04-12T17:32:17.531Z,99921.88
2023-04-12T17:35:29.740Z,99915.75
2023-04-12T17:38:35.080Z,99922.97
2023-04-12T17:41:38.879Z,99918.56
2023-04-12T17:44:42.573Z,99926.53
2023-04-12T17:47:48.329Z,99912.41
2023-04-12T17:50:53.700Z,99917.88
2023-04-12T17:53:59.659Z,99925.06
2023-04-12T17:57:04.661Z,99924.41
2023-04-12T18:00:14.896Z,99926.44
2023-04-12T18:03:20.485Z,99928.47
2023-04-12T18:06:26.494Z,99934.81
2023-04-12T18:09:30.743Z,99935.91
2023-04-12T18:12:34.382Z,99944.06
2023-04-12T18:15:40.603Z,99941.50
2023-04-12T18:18:43.600Z,99942.47
2023-04-12T18:21:52.862Z,99942.53
2023-04-12T18:24:56.216Z,99937.28
2023-04-12T18:28:00.670Z,99937.31
2023-04-12T18:31:05.196Z,99945.50
2023-04-12T18:34:11.138Z,99944.69
2023-04-12T18:37:13.682Z,99946.53
2023-04-12T18:40:22.382Z,99947.53
2023-04-12T18:43:26.541Z,99948.38
2023-04-12T18:46:31.984Z,99951.06
2023-04-12T18:49:35.731Z,99946.63
2023-04-12T18:52:39.610Z,99951.09
2023-04-12T18:55:48.404Z,99951.06
2023-04-12T18:58:57.885Z,99953.75
2023-04-12T19:02:02.565Z,99950.19
2023-04-12T19:05:09.607Z,99952.00
2023-04-12T19:08:15.728Z,99946.72
2023-04-12T19:11:20.023Z,99943.31
2023-04-12T19:14:23.619Z,99949.53
2023-04-12T19:17:31.360Z,99938.91
2023-04-12T19:20:36.350Z,99940.81
2023-04-12T19:23:44.664Z,99939.22
2023-04-12T19:26:53.887Z,99933.88
2023-04-12T19:30:01.633Z,99935.66
2023-04-12T19:33:05.325Z,99934.81
2023-04-12T19:36:10.085Z,99933.94
2023-04-12T19:39:14.648Z,99927.81
2023-04-12T19:42:19.209Z,99919.91
2023-04-12T19:45:23.344Z,99919.09
2023-04-12T19:48:27.803Z,99915.69
2023-04-12T19:51:32.006Z,99906.00
2023-04-12T19:54:36.615Z,99906.06
2023-04-12T19:57:41.713Z,99908.75
2023-04-12T20:00:46.118Z,99915.06
2023-04-12T20:03:50.334Z,99917.81
2023-04-12T20:06:54.989Z,99919.63
2023-04-12T20:10:02.299Z,99922.31
2023-04-12T20:13:11.269Z,99914.41
2023-04-12T20:16:14.654Z,99916.25
2023-04-12T20:19:23.128Z,99920.72
2023-04-12T20:22:28.265Z,99912.84
2023-04-12T20:25:40.952Z,99910.16
2023-04-12T20:28:51.183Z,99901.34
2023-04-12T20:31:57.264Z,99915.50
2023-04-12T20:35:02.167Z,99909.34
2023-04-12T20:38:06.240Z,99909.41
2023-04-12T20:41:11.450Z,99900.53
2023-04-12T20:44:15.004Z,99892.63
2023-04-12T20:47:18.751Z,99899.69
2023-04-12T20:50:22.800Z,99897.94
2023-04-12T20:53:25.872Z,99898.81
2023-04-12T20:56:29.861Z,99900.59
2023-04-12T20:59:34.688Z,99890.00
2023-04-12T21:02:39.472Z,99895.28
2023-04-12T21:05:42.225Z,99896.16
2023-04-12T21:08:47.538Z,99887.34
2023-04-12T21:11:51.248Z,99890.06
2023-04-12T21:14:54.307Z,99890.06
2023-04-12T21:17:57.117Z,99882.19
2023-04-12T21:21:00.712Z,99879.56
2023-04-12T21:24:04.094Z,99882.22
2023-04-12T21:27:10.070Z,99883.13
2023-04-12T21:30:13.795Z,99894.63
2023-04-12T21:33:24.822Z,99891.09
2023-04-12T21:36:28.898Z,99889.38
2023-04-12T21:39:32.592Z,99892.91
2023-04-12T21:42:37.636Z,99896.47
2023-04-12T21:45:40.575Z,99885.88
2023-04-12T21:48:43.490Z,99891.16
2023-04-12T21:51:47.317Z,99883.25
2023-04-12T21:54:49.907Z,99879.75
2023-04-12T21:57:53.287Z,99885.03
2023-04-12T22:00:58.411Z,99881.53
2023-04-12T22:04:01.566Z,99884.16
2023-04-12T22:07:04.416Z,99885.03
2023-04-12T22:10:09.653Z,99878.88
2023-04-12T22:13:12.265Z,99881.53
2023-04-12T22:16:16.133Z,99880.63
2023-04-12T22:19:19.254Z,99885.91
2023-04-12T22:22:22.634Z,99875.34
2023-04-12T22:25:25.231Z,99870.91
2023-04-12T22:28:28.106Z,99862.97
2023-04-12T22:31:30.699Z,99863.88
2023-04-12T22:34:34.184Z,99852.41
2023-04-12T22:37:41.624Z,99855.06
2023-04-12T22:40:44.587Z,99854.16
2023-04-12T22:43:48.059Z,99849.75
2023-04-12T22:46:54.861Z,99839.16
2023-04-12T22:50:01.534Z,99841.81
2023-04-12T22:53:04.863Z,99843.56
2023-04-12T22:56:11.568Z,99836.50
2023-04-12T22:59:15.645Z,99834.72
2023-04-12T23:02:18.428Z,99822.38
2023-04-12T23:05:21.614Z,99828.53
2023-04-12T23:08:25.818Z,99819.72
2023-04-12T23:11:29.242Z,99824.09
2023-04-12T23:14:31.789Z,99822.34
2023-04-12T23:17:34.597Z,99818.72
2023-04-12T23:20:40.579Z,99817.81
2023-04-12T23:23:43.480Z,99800.22
2023-04-12T23:26:46.274Z,99800.19
2023-04-12T23:29:50.336Z,99789.63
2023-04-12T23:32:53.697Z,99797.53
2023-04-12T23:35:56.741Z,99792.25
2023-04-12T23:39:06.645Z,99790.44
2023-04-12T23:42:09.919Z,99786.88
2023-04-12T23:45:12.426Z,99780.75
2023-04-12T23:48:16.839Z,99786.91
2023-04-12T23:51:19.367Z,99778.03
2023-04-12T23:54:22.515Z,99776.25
2023-04-12T23:57:25.578Z,99778.63
